createdAt,value
2018-01-12T00:02:37.520Z,16.50
2018-01-12T00:17:35.405Z,14.90
2018-01-12T00:32:35.695Z,12.60
2018-01-12T00:47:34.599Z,14.23
2018-01-12T01:02:33.832Z,13.10
2018-01-12T01:17:36.621Z,13.03
2018-01-12T01:32:36.187Z,10.40
2018-01-12T01:47:34.904Z,10.17
2018-01-12T02:02:35.364Z,10.43
2018-01-12T02:17:34.845Z,9.53
2018-01-12T02:32:38.199Z,9.37
2018-01-12T02:47:37.040Z,9.40
2018-01-12T03:02:34.374Z,9.33
2018-01-12T03:17:34.974Z,10.20
2018-01-12T04:02:48.687Z,9.47
2018-01-12T04:17:39.907Z,9.60
2018-01-12T04:32:33.952Z,9.37
2018-01-12T04:47:36.591Z,10.50
2018-01-12T05:02:36.864Z,10.10
2018-01-12T05:17:33.808Z,10.20
2018-01-12T05:32:34.171Z,11.17
2018-01-12T06:02:39.921Z,11.90
2018-01-12T06:17:33.578Z,13.83
2018-01-12T06:32:35.077Z,12.40
2018-01-12T06:47:35.819Z,14.90
2018-01-12T07:02:35.723Z,13.30
2018-01-12T07:17:35.053Z,12.77
2018-01-12T07:32:37.354Z,14.50
2018-01-12T07:47:35.168Z,18.20
2018-01-12T08:02:40.909Z,13.17
2018-01-12T08:17:35.195Z,16.17
2018-01-12T08:32:36.600Z,10.80
2018-01-12T08:47:34.535Z,10.80
2018-01-12T09:02:36.476Z,15.23
2018-01-12T09:17:49.329Z,14.03
2018-01-12T09:32:34.842Z,14.47
2018-01-12T09:47:41.323Z,16.20
2018-01-12T10:02:40.764Z,13.10
2018-01-12T10:17:36.485Z,14.60
2018-01-12T10:32:57.291Z,10.70
2018-01-12T10:47:50.863Z,11.37
2018-01-12T11:02:39.952Z,8.80
2018-01-12T11:17:34.955Z,8.83
2018-01-12T11:32:37.545Z,8.07
2018-01-12T11:47:35.273Z,8.50
2018-01-12T12:02:38.252Z,9.60
2018-01-12T12:17:37.173Z,11.87
2018-01-12T12:32:34.558Z,12.23
2018-01-12T12:47:34.406Z,21.93
2018-01-12T13:02:34.417Z,20.63
2018-01-12T13:17:34.429Z,19.33
2018-01-12T13:32:35.761Z,19.10
2018-01-12T13:47:35.558Z,17.97
2018-01-12T14:02:38.891Z,19.57
2018-01-12T14:17:37.663Z,18.67
2018-01-12T14:32:37.984Z,18.77
2018-01-12T14:47:34.875Z,22.63
2018-01-12T15:02:34.920Z,15.97
2018-01-12T15:17:34.792Z,12.80
2018-01-12T15:32:35.216Z,12.97
2018-01-12T15:47:41.322Z,12.43
2018-01-12T16:02:35.157Z,14.00
2018-01-12T16:17:34.369Z,15.30
2018-01-12T16:32:34.460Z,21.67
2018-01-12T16:47:34.774Z,22.60
2018-01-12T17:02:33.608Z,21.50
2018-01-12T17:17:34.581Z,21.70
2018-01-12T17:47:38.025Z,21.40
2018-01-12T18:02:38.460Z,21.20
2018-01-12T18:17:34.585Z,20.03
2018-01-12T18:47:43.494Z,10.40
2018-01-12T19:02:34.356Z,8.50
2018-01-12T19:17:34.116Z,8.67
2018-01-12T19:32:35.249Z,9.90
2018-01-12T19:47:40.378Z,7.97
2018-01-12T20:02:36.188Z,5.93
2018-01-12T20:17:35.073Z,6.07
2018-01-12T20:32:39.686Z,5.60
2018-01-12T20:47:39.000Z,6.87
2018-01-12T21:02:36.317Z,5.60
2018-01-12T21:17:34.738Z,4.27
2018-01-12T21:32:36.673Z,5.03
2018-01-12T21:47:36.127Z,5.50
2018-01-12T22:02:35.651Z,5.90
2018-01-12T22:17:35.544Z,5.03
2018-01-12T22:32:38.674Z,5.10
2018-01-12T22:47:36.810Z,4.10
2018-01-12T23:02:36.911Z,3.97
2018-01-12T23:17:35.763Z,3.90
2018-01-12T23:32:35.459Z,3.40
2018-01-12T23:47:38.137Z,3.10
